sensor_id;sensor_type;location;lat;lon;timestamp;pressure;altitude;pressure_sealevel;temperature;humidity
61014;BME280;46899;47.542;19.082;2022-10-04T00:01:05;100847.28;;;10.55;94.66
61014;BME280;46899;47.542;19.082;2022-10-04T00:07:22;100841.38;;;10.50;94.84
61014;BME280;46899;47.542;19.082;2022-10-04T00:10:28;100848.25;;;10.53;95.33
61014;BME280;46899;47.542;19.082;2022-10-04T00:13:31;100845.75;;;10.48;95.88
61014;BME280;46899;47.542;19.082;2022-10-04T00:16:38;100847.66;;;10.42;96.62
61014;BME280;46899;47.542;19.082;2022-10-04T00:23:23;100836.63;;;10.34;97.49
61014;BME280;46899;47.542;19.082;2022-10-04T00:38:41;100835.50;;;10.42;97.25
61014;BME280;46899;47.542;19.082;2022-10-04T00:45:03;100831.69;;;10.55;96.54
61014;BME280;46899;47.542;19.082;2022-10-04T00:51:43;100826.66;;;10.49;97.43
61014;BME280;46899;47.542;19.082;2022-10-04T00:54:52;100836.13;;;10.52;97.38
61014;BME280;46899;47.542;19.082;2022-10-04T00:57:58;100819.84;;;10.45;98.10
61014;BME280;46899;47.542;19.082;2022-10-04T01:01:02;100820.91;;;10.38;99.35
61014;BME280;46899;47.542;19.082;2022-10-04T01:04:06;100824.38;;;10.37;
61014;BME280;46899;47.542;19.082;2022-10-04T01:07:15;100821.03;;;10.34;100.00
61014;BME280;46899;47.542;19.082;2022-10-04T01:10:30;100812.16;;;10.41;100.00
61014;BME280;46899;47.542;19.082;2022-10-04T01:14:18;100807.78;;;10.41;100.00
61014;BME280;46899;47.542;19.082;2022-10-04T01:17:01;100798.12;;;10.46;100.00
61014;BME280;46899;47.542;19.082;2022-10-04T01:20:12;100794.41;;;10.55;99.80
61014;BME280;46899;47.542;19.082;2022-10-04T01:26:42;100785.56;;;10.60;100.00
61014;BME280;46899;47.542;19.082;2022-10-04T01:29:45;100794.44;;;10.53;100.00
61014;BME280;46899;47.542;19.082;2022-10-04T01:32:47;100780.81;;;10.45;100.00
61014;BME280;46899;47.542;19.082;2022-10-04T01:35:49;100778.22;;;10.45;100.00
61014;BME280;46899;47.542;19.082;2022-10-04T01:38:52;100782.59;;;10.43;100.00
61014;BME280;46899;47.542;19.082;2022-10-04T01:45:28;100775.75;;;10.41;100.00
61014;BME280;46899;47.542;19.082;2022-10-04T01:48:35;100786.16;;;10.39;100.00
61014;BME280;46899;47.542;19.082;2022-10-04T01:51:42;100780.22;;;10.34;100.00
61014;BME280;46899;47.542;19.082;2022-10-04T01:55:01;100774.34;;;10.27;100.00
61014;BME280;46899;47.542;19.082;2022-10-04T01:58:12;100776.94;;;10.29;100.00
61014;BME280;46899;47.542;19.082;2022-10-04T02:01:21;100779.41;;;10.34;100.00
61014;BME280;46899;47.542;19.082;2022-10-04T02:04:29;100766.47;;;10.30;100.00
61014;BME280;46899;47.542;19.082;2022-10-04T02:07:33;100767.28;;;10.32;100.00
61014;BME280;46899;47.542;19.082;2022-10-04T02:10:38;100774.19;;;10.34;100.00
61014;BME280;46899;47.542;19.082;2022-10-04T02:13:44;100779.44;;;10.32;100.00
61014;BME280;46899;47.542;19.082;2022-10-04T02:16:48;100783.00;;;10.28;100.00
61014;BME280;46899;47.542;19.082;2022-10-04T02:19:53;100792.72;;;10.21;100.00
61014;BME280;46899;47.542;19.082;2022-10-04T02:22:57;100793.78;;;10.14;100.00
61014;BME280;46899;47.542;19.082;2022-10-04T02:26:04;100793.88;;;10.08;100.00
61014;BME280;46899;47.542;19.082;2022-10-04T02:29:08;100796.63;;;10.04;100.00
61014;BME280;46899;47.542;19.082;2022-10-04T02:32:10;100803.78;;;9.96;100.00
61014;BME280;46899;47.542;19.082;2022-10-04T02:35:35;100793.50;;;9.91;100.00
61014;BME280;46899;47.542;19.082;2022-10-04T02:38:43;100791.72;;;9.92;100.00
61014;BME280;46899;47.542;19.082;2022-10-04T02:41:49;100797.72;;;9.95;100.00
61014;BME280;46899;47.542;19.082;2022-10-04T02:45:01;100788.41;;;9.87;100.00
61014;BME280;46899;47.542;19.082;2022-10-04T02:48:27;100782.41;;;9.83;100.00
61014;BME280;46899;47.542;19.082;2022-10-04T02:51:32;100786.75;;;9.83;100.00
61014;BME280;46899;47.542;19.082;2022-10-04T02:54:37;100776.37;;;9.83;100.00
61014;BME280;46899;47.542;19.082;2022-10-04T02:57:42;100785.81;;;9.85;100.00
61014;BME280;46899;47.542;19.082;2022-10-04T03:00:54;100780.69;;;9.84;100.00
61014;BME280;46899;47.542;19.082;2022-10-04T03:03:58;100778.84;;;9.87;100.00
61014;BME280;46899;47.542;19.082;2022-10-04T03:07:01;100790.03;;;9.91;100.00
61014;BME280;46899;47.542;19.082;2022-10-04T03:10:07;100789.84;;;9.98;100.00
61014;BME280;46899;47.542;19.082;2022-10-04T03:13:11;100796.72;;;10.01;100.00
61014;BME280;46899;47.542;19.082;2022-10-04T03:16:14;100793.37;;;9.96;100.00
61014;BME280;46899;47.542;19.082;2022-10-04T03:19:18;100784.84;;;9.91;100.00
61014;BME280;46899;47.542;19.082;2022-10-04T03:22:21;100785.72;;;9.90;100.00
61014;BME280;46899;47.542;19.082;2022-10-04T03:25:28;100787.56;;;9.85;100.00
61014;BME280;46899;47.542;19.082;2022-10-04T03:28:31;100785.91;;;9.82;100.00
61014;BME280;46899;47.542;19.082;2022-10-04T03:31:36;100783.41;;;9.78;100.00
61014;BME280;46899;47.542;19.082;2022-10-04T03:34:40;100779.37;;;9.66;100.00
61014;BME280;46899;47.542;19.082;2022-10-04T03:37:46;100780.31;;;9.63;100.00
61014;BME280;46899;47.542;19.082;2022-10-04T03:40:56;100785.31;;;9.73;100.00
61014;BME280;46899;47.542;19.082;2022-10-04T03:43:59;100789.53;;;9.77;100.00
61014;BME280;46899;47.542;19.082;2022-10-04T03:47:24;100786.69;;;9.86;100.00
61014;BME280;46899;47.542;19.082;2022-10-04T03:50:34;100780.41;;;9.94;100.00
61014;BME280;46899;47.542;19.082;2022-10-04T03:53:41;100782.94;;;9.97;100.00
61014;BME280;46899;47.542;19.082;2022-10-04T03:56:45;100781.19;;;9.98;100.00
61014;BME280;46899;47.542;19.082;2022-10-04T03:59:47;100780.16;;;10.03;100.00
61014;BME280;46899;47.542;19.082;2022-10-04T04:05:53;100780.09;;;10.06;100.00
61014;BME280;46899;47.542;19.082;2022-10-04T04:08:59;100784.53;;;10.03;100.00
61014;BME280;46899;47.542;19.082;2022-10-04T04:12:03;100792.47;;;9.97;100.00
61014;BME280;46899;47.542;19.082;2022-10-04T04:15:10;100781.12;;;9.99;100.00
61014;BME280;46899;47.542;19.082;2022-10-04T04:18:23;100792.44;;;9.98;100.00
61014;BME280;46899;47.542;19.082;2022-10-04T04:21:27;100803.78;;;9.94;100.00
61014;BME280;46899;47.542;19.082;2022-10-04T04:24:30;100802.34;;;9.84;100.00
61014;BME280;46899;47.542;19.082;2022-10-04T04:27:34;100803.22;;;9.83;100.00
61014;BME280;46899;47.542;19.082;2022-10-04T04:30:37;100807.00;;;9.70;100.00
61014;BME280;46899;47.542;19.082;2022-10-04T04:33:48;100816.50;;;9.71;100.00
61014;BME280;46899;47.542;19.082;2022-10-04T04:36:56;100816.31;;;9.79;100.00
61014;BME280;46899;47.542;19.082;2022-10-04T04:40:09;100811.88;;;9.82;100.00
61014;BME280;46899;47.542;19.082;2022-10-04T04:43:14;100794.44;;;9.87;100.00
61014;BME280;46899;47.542;19.082;2022-10-04T04:46:19;100800.19;;;10.00;100.00
61014;BME280;46899;47.542;19.082;2022-10-04T04:49:29;100799.22;;;10.04;100.00
61014;BME280;46899;47.542;19.082;2022-10-04T04:52:32;100804.00;;;10.20;100.00
61014;BME280;46899;47.542;19.082;2022-10-04T04:55:40;100802.75;;;10.35;100.00
61014;BME280;46899;47.542;19.082;2022-10-04T04:59:03;100811.13;;;10.46;100.00
61014;BME280;46899;47.542;19.082;2022-10-04T05:05:35;100820.19;;;10.64;100.00
61014;BME280;46899;47.542;19.082;2022-10-04T05:08:39;100815.72;;;10.69;100.00
61014;BME280;46899;47.542;19.082;2022-10-04T05:11:42;100816.44;;;10.74;100.00
61014;BME280;46899;47.542;19.082;2022-10-04T05:14:49;100828.38;;;10.81;100.00
61014;BME280;46899;47.542;19.082;2022-10-04T05:17:53;100822.94;;;10.88;100.00
61014;BME280;46899;47.542;19.082;2022-10-04T05:20:57;100844.47;;;10.95;100.00
61014;BME280;46899;47.542;19.082;2022-10-04T05:30:39;100844.09;;;11.07;100.00
61014;BME280;46899;47.542;19.082;2022-10-04T05:33:45;100835.16;;;11.16;100.00
61014;BME280;46899;47.542;19.082;2022-10-04T05:36:52;100842.91;;;11.19;100.00
61014;BME280;46899;47.542;19.082;2022-10-04T05:40:02;100845.50;;;11.19;100.00
61014;BME280;46899;47.542;19.082;2022-10-04T05:43:19;100852.03;;;11.32;100.00
61014;BME280;46899;47.542;19.082;2022-10-04T05:46:27;100855.03;;;11.47;100.00
61014;BME280;46899;47.542;19.082;2022-10-04T05:49:35;100849.50;;;11.58;100.00
61014;BME280;46899;47.542;19.082;2022-10-04T05:52:41;100865.78;;;11.64;100.00
61014;BME280;46899;47.542;19.082;2022-10-04T06:19:21;100892.06;;;13.81;88.99
61014;BME280;46899;47.542;19.082;2022-10-04T06:22:27;100895.03;;;14.77;82.33
61014;BME280;46899;47.542;19.082;2022-10-04T06:25:39;100898.78;;;14.51;82.00
61014;BME280;46899;47.542;19.082;2022-10-04T06:28:46;100895.25;;;13.89;85.29
61014;BME280;46899;47.542;19.082;2022-10-04T06:31:55;100893.12;;;13.32;89.92
61014;BME280;46899;47.542;19.082;2022-10-04T07:03:26;100921.69;;;13.59;90.75
61014;BME280;46899;47.542;19.082;2022-10-04T07:06:51;100924.13;;;13.86;89.27
61014;BME280;46899;47.542;19.082;2022-10-04T07:10:36;100937.22;;;13.86;89.45
61014;BME280;46899;47.542;19.082;2022-10-04T07:13:42;100943.47;;;14.25;87.72
61014;BME280;46899;47.542;19.082;2022-10-04T07:16:51;100946.69;;;14.53;85.94
61014;BME280;46899;47.542;19.082;2022-10-04T07:19:57;100945.94;;;14.91;84.72
61014;BME280;46899;47.542;19.082;2022-10-04T07:23:21;100943.41;;;15.29;82.50
61014;BME280;46899;47.542;19.082;2022-10-04T07:29:32;100941.06;;;14.20;87.70
61014;BME280;46899;47.542;19.082;2022-10-04T07:32:44;100937.72;;;13.95;89.44
61014;BME280;46899;47.542;19.082;2022-10-04T07:35:47;100937.59;;;13.77;90.82
61014;BME280;46899;47.542;19.082;2022-10-04T07:38:53;100949.59;;;13.82;90.43
61014;BME280;46899;47.542;19.082;2022-10-04T07:48:23;100948.59;;;14.28;86.64
61014;BME280;46899;47.542;19.082;2022-10-04T07:51:33;100957.41;;;14.04;86.96
61014;BME280;46899;47.542;19.082;2022-10-04T07:54:39;100957.00;;;14.14;87.05
61014;BME280;46899;47.542;19.082;2022-10-04T07:57:49;100947.94;;;14.45;85.74
61014;BME280;46899;47.542;19.082;2022-10-04T08:00:59;100951.59;;;15.02;81.47
61014;BME280;46899;47.542;19.082;2022-10-04T08:07:16;100959.34;;;15.63;76.12
61014;BME280;46899;47.542;19.082;2022-10-04T08:10:24;100959.28;;;15.83;76.24
61014;BME280;46899;47.542;19.082;2022-10-04T08:13:40;100967.81;;;15.31;77.15
61014;BME280;46899;47.542;19.082;2022-10-04T08:32:53;100994.66;;;14.75;80.48
61014;BME280;46899;47.542;19.082;2022-10-04T08:39:06;100983.59;;;14.69;80.41
61014;BME280;46899;47.542;19.082;2022-10-04T08:58:34;100999.25;;;14.70;82.39
61014;BME280;46899;47.542;19.082;2022-10-04T09:07:57;100988.09;;;15.66;77.69
61014;BME280;46899;47.542;19.082;2022-10-04T09:33:18;100994.72;;;17.16;63.31
61014;BME280;46899;47.542;19.082;2022-10-04T09:45:49;101002.84;;;16.41;66.26
61014;BME280;46899;47.542;19.082;2022-10-04T10:05:21;101005.41;;;16.43;66.28
61014;BME280;46899;47.542;19.082;2022-10-04T10:08:26;101011.09;;;16.34;66.53
61014;BME280;46899;47.542;19.082;2022-10-04T10:11:48;101021.59;;;16.53;67.51
61014;BME280;46899;47.542;19.082;2022-10-04T10:18:24;101017.19;;;16.70;66.57
61014;BME280;46899;47.542;19.082;2022-10-04T10:25:00;101021.00;;;16.65;67.54
61014;BME280;46899;47.542;19.082;2022-10-04T10:41:04;101027.50;;;16.92;64.67
61014;BME280;46899;47.542;19.082;2022-10-04T10:44:16;101034.63;;;16.90;63.32
61014;BME280;46899;47.542;19.082;2022-10-04T10:50:50;101024.19;;;16.17;65.97
61014;BME280;46899;47.542;19.082;2022-10-04T10:57:14;101015.69;;;16.48;63.40
61014;BME280;46899;47.542;19.082;2022-10-04T11:01:31;101012.87;;;16.33;62.96
61014;BME280;46899;47.542;19.082;2022-10-04T11:20:24;101009.78;;;18.11;56.60
61014;BME280;46899;47.542;19.082;2022-10-04T11:30:26;101026.53;;;17.44;58.73
61014;BME280;46899;47.542;19.082;2022-10-04T11:40:29;101030.94;;;17.44;58.54
61014;BME280;46899;47.542;19.082;2022-10-04T11:46:42;101031.69;;;17.13;56.81
61014;BME280;46899;47.542;19.082;2022-10-04T11:49:52;101032.25;;;17.02;57.27
61014;BME280;46899;47.542;19.082;2022-10-04T11:56:26;101022.91;;;16.61;61.33
61014;BME280;46899;47.542;19.082;2022-10-04T12:12:20;101019.13;;;17.52;59.34
61014;BME280;46899;47.542;19.082;2022-10-04T12:16:00;101022.41;;;18.04;58.68
61014;BME280;46899;47.542;19.082;2022-10-04T12:22:38;101021.16;;;17.80;61.06
61014;BME280;46899;47.542;19.082;2022-10-04T12:31:58;101021.38;;;17.43;62.59
61014;BME280;46899;47.542;19.082;2022-10-04T12:35:08;101026.22;;;17.50;62.64
61014;BME280;46899;47.542;19.082;2022-10-04T12:51:18;101021.94;;;18.29;56.34
61014;BME280;46899;47.542;19.082;2022-10-04T12:54:34;101022.31;;;17.90;56.72
61014;BME280;46899;47.542;19.082;2022-10-04T12:58:12;101030.16;;;17.92;56.70
61014;BME280;46899;47.542;19.082;2022-10-04T13:01:13;101027.59;;;17.90;55.45
61014;BME280;46899;47.542;19.082;2022-10-04T13:17:23;101024.25;;;17.04;59.50
61014;BME280;46899;47.542;19.082;2022-10-04T13:26:46;101013.41;;;17.10;58.91
61014;BME280;46899;47.542;19.082;2022-10-04T13:29:58;101010.34;;;17.02;58.38
61014;BME280;46899;47.542;19.082;2022-10-04T13:46:42;101030.59;;;16.83;58.54
61014;BME280;46899;47.542;19.082;2022-10-04T14:03:09;101035.44;;;16.37;58.52
61014;BME280;46899;47.542;19.082;2022-10-04T14:09:48;101039.00;;;16.36;58.76
61014;BME280;46899;47.542;19.082;2022-10-04T14:13:11;101050.41;;;16.35;59.49
61014;BME280;46899;47.542;19.082;2022-10-04T14:29:13;101051.81;;;16.42;59.97
61014;BME280;46899;47.542;19.082;2022-10-04T14:35:46;101049.88;;;16.29;61.54
61014;BME280;46899;47.542;19.082;2022-10-04T14:45:30;101058.59;;;16.29;63.03
61014;BME280;46899;47.542;19.082;2022-10-04T14:48:45;101065.31;;;16.35;62.50
61014;BME280;46899;47.542;19.082;2022-10-04T14:52:12;101058.28;;;16.35;62.84
61014;BME280;46899;47.542;19.082;2022-10-04T15:11:18;101091.00;;;15.91;60.46
61014;BME280;46899;47.542;19.082;2022-10-04T15:14:35;101090.91;;;15.74;61.33
61014;BME280;46899;47.542;19.082;2022-10-04T15:17:52;101088.41;;;15.71;61.33
61014;BME280;46899;47.542;19.082;2022-10-04T15:21:00;101080.44;;;15.54;62.89
61014;BME280;46899;47.542;19.082;2022-10-04T15:33:41;101094.03;;;15.22;63.93
61014;BME280;46899;47.542;19.082;2022-10-04T15:46:25;101105.94;;;14.88;66.39
61014;BME280;46899;47.542;19.082;2022-10-04T15:49:56;101108.13;;;14.77;67.23
61014;BME280;46899;47.542;19.082;2022-10-04T15:53:03;101112.84;;;14.68;68.97
61014;BME280;46899;47.542;19.082;2022-10-04T16:05:36;101130.84;;;14.32;73.26
61014;BME280;46899;47.542;19.082;2022-10-04T16:15:10;101139.19;;;14.18;74.85
61014;BME280;46899;47.542;19.082;2022-10-04T16:18:37;101152.16;;;13.98;76.82
61014;BME280;46899;47.542;19.082;2022-10-04T16:43:52;101162.25;;;13.35;83.14
61014;BME280;46899;47.542;19.082;2022-10-04T16:46:55;101164.47;;;13.21;84.29
61014;BME280;46899;47.542;19.082;2022-10-04T16:50:01;101174.66;;;13.28;84.24
61014;BME280;46899;47.542;19.082;2022-10-04T16:56:28;101175.41;;;13.04;86.41
61014;BME280;46899;47.542;19.082;2022-10-04T16:59:50;101179.22;;;12.94;87.94
61014;BME280;46899;47.542;19.082;2022-10-04T17:02:58;101181.09;;;12.89;87.90
61014;BME280;46899;47.542;19.082;2022-10-04T17:06:13;101181.34;;;12.81;89.27
61014;BME280;46899;47.542;19.082;2022-10-04T17:15:47;101195.63;;;12.70;91.16
61014;BME280;46899;47.542;19.082;2022-10-04T17:22:14;101197.94;;;12.51;92.55
61014;BME280;46899;47.542;19.082;2022-10-04T17:25:43;101207.66;;;12.46;92.99
61014;BME280;46899;47.542;19.082;2022-10-04T17:38:11;101226.84;;;12.14;97.28
61014;BME280;46899;47.542;19.082;2022-10-04T17:41:35;101229.81;;;12.01;98.44
61014;BME280;46899;47.542;19.082;2022-10-04T17:47:52;101230.84;;;11.95;100.00
61014;BME280;46899;47.542;19.082;2022-10-04T17:51:37;101230.56;;;12.06;99.12
61014;BME280;46899;47.542;19.082;2022-10-04T17:55:02;101235.72;;;12.07;99.12
61014;BME280;46899;47.542;19.082;2022-10-04T17:58:19;101243.63;;;12.04;98.96
61014;BME280;46899;47.542;19.082;2022-10-04T18:01:27;101240.53;;;11.90;100.00
61014;BME280;46899;47.542;19.082;2022-10-04T18:04:33;101244.38;;;11.76;100.00
61014;BME280;46899;47.542;19.082;2022-10-04T18:07:38;101243.31;;;11.84;100.00
61014;BME280;46899;47.542;19.082;2022-10-04T18:10:49;101244.38;;;11.76;100.00
61014;BME280;46899;47.542;19.082;2022-10-04T18:14:03;101248.75;;;11.75;100.00
61014;BME280;46899;47.542;19.082;2022-10-04T18:17:12;101248.09;;;11.65;100.00
61014;BME280;46899;47.542;19.082;2022-10-04T18:20:36;101248.47;;;11.50;100.00
61014;BME280;46899;47.542;19.082;2022-10-04T18:23:49;101247.59;;;11.50;100.00
61014;BME280;46899;47.542;19.082;2022-10-04T18:26:54;101253.09;;;11.38;100.00
61014;BME280;46899;47.542;19.082;2022-10-04T18:33:03;101258.28;;;11.39;100.00
61014;BME280;46899;47.542;19.082;2022-10-04T18:36:16;101257.28;;;11.45;100.00
61014;BME280;46899;47.542;19.082;2022-10-04T18:39:21;101259.81;;;11.48;100.00
61014;BME280;46899;47.542;19.082;2022-10-04T18:42:29;101262.41;;;11.48;100.00
61014;BME280;46899;47.542;19.082;2022-10-04T18:45:36;101265.94;;;11.45;100.00
61014;BME280;46899;47.542;19.082;2022-10-04T19:01:54;101287.72;;;11.44;100.00
61014;BME280;46899;47.542;19.082;2022-10-04T19:05:11;101292.06;;;11.44;100.00
61014;BME280;46899;47.542;19.082;2022-10-04T19:11:27;101298.44;;;11.31;100.00
61014;BME280;46899;47.542;19.082;2022-10-04T19:18:01;101301.41;;;11.16;100.00
61014;BME280;46899;47.542;19.082;2022-10-04T19:25:04;101307.06;;;10.93;100.00
61014;BME280;46899;47.542;19.082;2022-10-04T19:28:19;101308.16;;;10.84;100.00
61014;BME280;46899;47.542;19.082;2022-10-04T19:50:48;101345.97;;;10.59;100.00
61014;BME280;46899;47.542;19.082;2022-10-04T19:53:53;101341.59;;;10.61;100.00
61014;BME280;46899;47.542;19.082;2022-10-04T19:56:59;101345.97;;;10.58;100.00
61014;BME280;46899;47.542;19.082;2022-10-04T20:00:07;101346.94;;;10.54;100.00
61014;BME280;46899;47.542;19.082;2022-10-04T20:03:12;101341.87;;;10.46;100.00
61014;BME280;46899;47.542;19.082;2022-10-04T20:06:18;101349.78;;;10.40;100.00
61014;BME280;46899;47.542;19.082;2022-10-04T20:12:41;101356.69;;;10.41;100.00
61014;BME280;46899;47.542;19.082;2022-10-04T20:15:44;101358.47;;;10.41;100.00
61014;BME280;46899;47.542;19.082;2022-10-04T20:18:52;101354.25;;;10.32;100.00
61014;BME280;46899;47.542;19.082;2022-10-04T20:25:09;101365.66;;;10.25;100.00
61014;BME280;46899;47.542;19.082;2022-10-04T20:34:55;101374.69;;;10.01;100.00
61014;BME280;46899;47.542;19.082;2022-10-04T20:47:50;101378.47;;;9.82;100.00
61014;BME280;46899;47.542;19.082;2022-10-04T20:50:54;101386.28;;;9.81;100.00
61014;BME280;46899;47.542;19.082;2022-10-04T20:54:02;101389.84;;;9.77;100.00
61014;BME280;46899;47.542;19.082;2022-10-04T20:57:09;101391.59;;;9.75;100.00
61014;BME280;46899;47.542;19.082;2022-10-04T21:00:20;101396.81;;;9.75;100.00
61014;BME280;46899;47.542;19.082;2022-10-04T21:03:27;101393.37;;;9.73;100.00
61014;BME280;46899;47.542;19.082;2022-10-04T21:06:29;101401.19;;;9.70;100.00
61014;BME280;46899;47.542;19.082;2022-10-04T21:09:32;101401.25;;;9.67;100.00
61014;BME280;46899;47.542;19.082;2022-10-04T21:12:38;101403.81;;;9.70;100.00
61014;BME280;46899;47.542;19.082;2022-10-04T21:15:53;101396.84;;;9.72;100.00
61014;BME280;46899;47.542;19.082;2022-10-04T21:19:26;101390.81;;;9.68;100.00
61014;BME280;46899;47.542;19.082;2022-10-04T21:25:27;101397.00;;;9.59;100.00
61014;BME280;46899;47.542;19.082;2022-10-04T21:28:32;101404.06;;;9.50;100.00
61014;BME280;46899;47.542;19.082;2022-10-04T21:31:36;101401.59;;;9.41;100.00
61014;BME280;46899;47.542;19.082;2022-10-04T21:34:38;101407.72;;;9.35;100.00
61014;BME280;46899;47.542;19.082;2022-10-04T21:37:54;101410.37;;;9.32;100.00
61014;BME280;46899;47.542;19.082;2022-10-04T21:40:57;101409.56;;;9.26;100.00
61014;BME280;46899;47.542;19.082;2022-10-04T21:43:59;101419.19;;;9.21;100.00
61014;BME280;46899;47.542;19.082;2022-10-04T21:47:02;101411.47;;;9.12;100.00
61014;BME280;46899;47.542;19.082;2022-10-04T21:50:04;101410.72;;;9.02;100.00
61014;BME280;46899;47.542;19.082;2022-10-04T21:53:07;101422.06;;;8.95;100.00
61014;BME280;46899;47.542;19.082;2022-10-04T21:56:10;101428.22;;;8.86;100.00
61014;BME280;46899;47.542;19.082;2022-10-04T21:59:12;101426.53;;;8.84;100.00
61014;BME280;46899;47.542;19.082;2022-10-04T22:02:14;101421.28;;;8.88;100.00
61014;BME280;46899;47.542;19.082;2022-10-04T22:05:17;101431.72;;;8.81;100.00
61014;BME280;46899;47.542;19.082;2022-10-04T22:08:19;101435.25;;;8.74;100.00
61014;BME280;46899;47.542;19.082;2022-10-04T22:11:22;101431.00;;;8.70;100.00
61014;BME280;46899;47.542;19.082;2022-10-04T22:14:24;101425.81;;;8.70;100.00
61014;BME280;46899;47.542;19.082;2022-10-04T22:17:27;101431.94;;;8.63;100.00
61014;BME280;46899;47.542;19.082;2022-10-04T22:20:29;101433.72;;;8.59;100.00
61014;BME280;46899;47.542;19.082;2022-10-04T22:23:36;101438.03;;;8.56;100.00
61014;BME280;46899;47.542;19.082;2022-10-04T22:26:39;101432.88;;;8.54;100.00
61014;BME280;46899;47.542;19.082;2022-10-04T22:29:42;101437.28;;;8.48;100.00
61014;BME280;46899;47.542;19.082;2022-10-04T22:32:44;101443.34;;;8.44;100.00
61014;BME280;46899;47.542;19.082;2022-10-04T22:35:47;101438.19;;;8.39;100.00
61014;BME280;46899;47.542;19.082;2022-10-04T22:38:54;101435.62;;;8.36;100.00
61014;BME280;46899;47.542;19.082;2022-10-04T22:41:58;101446.06;;;8.30;100.00
61014;BME280;46899;47.542;19.082;2022-10-04T22:45:01;101444.31;;;8.29;100.00
61014;BME280;46899;47.542;19.082;2022-10-04T22:48:12;101440.00;;;8.25;100.00
61014;BME280;46899;47.542;19.082;2022-10-04T22:51:15;101451.28;;;8.21;100.00
61014;BME280;46899;47.542;19.082;2022-10-04T22:54:19;101451.31;;;8.16;100.00
61014;BME280;46899;47.542;19.082;2022-10-04T22:57:22;101461.72;;;8.10;100.00
61014;BME280;46899;47.542;19.082;2022-10-04T23:00:27;101461.75;;;8.06;100.00
61014;BME280;46899;47.542;19.082;2022-10-04T23:03:30;101460.06;;;8.02;100.00
61014;BME280;46899;47.542;19.082;2022-10-04T23:06:34;101462.62;;;8.03;100.00
61014;BME280;46899;47.542;19.082;2022-10-04T23:09:36;101464.37;;;8.01;100.00
61014;BME280;46899;47.542;19.082;2022-10-04T23:12:39;101460.94;;;7.99;100.00
61014;BME280;46899;47.542;19.082;2022-10-04T23:15:41;101460.13;;;7.96;100.00
61014;BME280;46899;47.542;19.082;2022-10-04T23:18:44;101468.78;;;7.93;100.00
61014;BME280;46899;47.542;19.082;2022-10-04T23:21:47;101470.53;;;7.88;100.00
61014;BME280;46899;47.542;19.082;2022-10-04T23:24:50;101468.78;;;7.87;100.00
61014;BME280;46899;47.542;19.082;2022-10-04T23:27:57;101475.69;;;7.88;100.00
61014;BME280;46899;47.542;19.082;2022-10-04T23:31:01;101484.37;;;7.83;100.00
61014;BME280;46899;47.542;19.082;2022-10-04T23:34:12;101480.94;;;7.76;100.00
61014;BME280;46899;47.542;19.082;2022-10-04T23:37:19;101487.03;;;7.72;100.00
61014;BME280;46899;47.542;19.082;2022-10-04T23:40:23;101489.62;;;7.68;100.00
61014;BME280;46899;47.542;19.082;2022-10-04T23:43:27;101489.62;;;7.66;100.00
61014;BME280;46899;47.542;19.082;2022-10-04T23:46:32;101488.81;;;7.58;100.00
61014;BME280;46899;47.542;19.082;2022-10-04T23:49:35;101498.34;;;7.53;100.00
61014;BME280;46899;47.542;19.082;2022-10-04T23:52:37;101506.97;;;7.47;100.00
61014;BME280;46899;47.542;19.082;2022-10-04T23:55:41;101497.50;;;7.43;100.00
61014;BME280;46899;47.542;19.082;2022-10-04T23:58:44;101500.97;;;7.38;100.00
